PWSweather.com
Personal Weather Stations
Station Observations
MAHIABEACH
Mahia Beach, Mahia Peninsula Hawkes Bay -NZ 4108

Mahia BeachMahia Peninsula Hawkes Bay -NZ 4108

Lat: -39.087594, Lon: 177.87261128

Elevation: 20

Station Type: ScientificSales WS1093

http://wairoa.net/mahia/index.htm

Latest ConditionsUpdated 6:45:05 PM GMT+12:12 Friday, Oct 24, 2014
Currently Today's Max Today's Min Today's Average
Temperature 50.5°F10.3°C 64.8°F18.2°C 47.5°F8.6°C 57.4°F14.1°C
Dew Point 43.3°F6.3°C 54.4°F12.4°C 41.6°F5.3°C 48.7°F9.3°C
Winds 10.8 mph S17.4 kmh S 16.1 mph SW25.9 kmh SW - 8.3 mph 13.4 kmh
Wind Gusts 22.8 mph36.7 kmh 34.9 mph56.2 kmh - -
Humidity 76% 94% 61% 73%
Pressure 29.99 in1015.6 mb 29.99 in1015.6 mb 29.68 in1005.1 mb -
Precipitation - 0.15 in3.8 mm - -
Hour Temp Dew Point Humidity Winds Wind Gusts Pressure Precip Precip Rate Daily Precip Total
06:45 PM 50.5°F10.3°C 43.3°F6.3°C 76% 10.8 mph S17.4 kmh S 22.8 mph36.7 kmh 29.99 in1015.6 mb 0.00 in0.0 mm 0.00 in/hr0.0 mm/hr 0.15 in3.8 mm
06:30 PM 51.1°F10.6°C 41.6°F5.3°C 70% 15.4 mph SSW24.8 kmh SSW 29.8 mph48.0 kmh 29.99 in1015.6 mb 0.00 in0.0 mm 0.00 in/hr0.0 mm/hr 0.15 in3.8 mm
06:15 PM 51.8°F11.0°C 43.1°F6.2°C 72% 12.9 mph SSW20.8 kmh SSW 25.9 mph41.7 kmh 29.98 in1015.2 mb 0.00 in0.0 mm 0.00 in/hr0.0 mm/hr 0.15 in3.8 mm
06:00 PM 51.4°F10.8°C 42.0°F5.6°C 70% 12.5 mph S20.1 kmh S 26.6 mph42.8 kmh 29.98 in1015.2 mb 0.02 in0.5 mm 0.00 in/hr0.0 mm/hr 0.15 in3.8 mm
05:45 PM 51.3°F10.7°C 45.3°F7.4°C 80% 11.9 mph S19.2 kmh S 27.3 mph43.9 kmh 29.97 in1014.9 mb 0.02 in0.5 mm 0.00 in/hr0.0 mm/hr 0.15 in3.8 mm
05:30 PM 49.1°F9.5°C 43.8°F6.6°C 82% 11.2 mph S18.0 kmh S 20.6 mph33.2 kmh 29.96 in1014.6 mb 0.02 in0.5 mm 0.00 in/hr0.0 mm/hr 0.15 in3.8 mm
05:15 PM 48.9°F9.4°C 43.4°F6.3°C 81% 13.1 mph SSW21.1 kmh SSW 34.9 mph56.2 kmh 29.97 in1014.9 mb 0.02 in0.5 mm 0.00 in/hr0.0 mm/hr 0.15 in3.8 mm
05:00 PM 51.4°F10.8°C 46.1°F7.8°C 82% 11.8 mph SSW19.0 kmh SSW 22.8 mph36.7 kmh 29.96 in1014.6 mb 0.02 in0.5 mm 0.00 in/hr0.0 mm/hr 0.13 in3.3 mm
04:45 PM 51.3°F10.7°C 42.9°F6.1°C 73% 12.6 mph S20.3 kmh S 31.1 mph50.1 kmh 29.96 in1014.6 mb 0.05 in1.3 mm 0.00 in/hr0.0 mm/hr 0.13 in3.3 mm
04:30 PM 50.7°F10.4°C 45.8°F7.7°C 83% 10.9 mph S17.5 kmh S 24.4 mph39.3 kmh 29.95 in1014.2 mb 0.06 in1.5 mm 0.00 in/hr0.0 mm/hr 0.13 in3.3 mm
04:15 PM 47.8°F8.8°C 45.3°F7.4°C 91% 3.9 mph SSW6.3 kmh SSW 11.4 mph18.3 kmh 29.95 in1014.2 mb 0.06 in1.5 mm 0.00 in/hr0.0 mm/hr 0.13 in3.3 mm
04:00 PM 47.5°F8.6°C 45.0°F7.2°C 91% 8.9 mph S14.3 kmh S 19.0 mph30.6 kmh 29.95 in1014.2 mb 0.06 in1.5 mm 0.03 in/hr0.8 mm/hr 0.11 in2.8 mm
03:45 PM 49.6°F9.8°C 45.6°F7.6°C 86% 16.1 mph SW25.9 kmh SW 30.4 mph48.9 kmh 29.95 in1014.2 mb 0.04 in1.0 mm 0.08 in/hr2.0 mm/hr 0.08 in2.0 mm
03:30 PM 51.4°F10.8°C 47.4°F8.6°C 86% 11.6 mph SW18.7 kmh SW 31.1 mph50.1 kmh 29.93 in1013.5 mb 0.02 in0.5 mm 0.00 in/hr0.0 mm/hr 0.07 in1.8 mm
03:15 PM 51.1°F10.6°C 42.7°F5.9°C 73% 11.9 mph S19.2 kmh S 26.6 mph42.8 kmh 29.93 in1013.5 mb 0.04 in1.0 mm 0.08 in/hr2.0 mm/hr 0.07 in1.8 mm
03:00 PM 50.9°F10.5°C 42.9°F6.1°C 74% 14.1 mph S22.7 kmh S 25.9 mph41.7 kmh 29.92 in1013.2 mb 0.02 in0.5 mm 0.00 in/hr0.0 mm/hr 0.05 in1.3 mm
02:45 PM 51.3°F10.7°C 42.2°F5.7°C 71% 11.4 mph S18.3 kmh S 22.8 mph36.7 kmh 29.91 in1012.9 mb 0.02 in0.5 mm 0.00 in/hr0.0 mm/hr 0.05 in1.3 mm
02:30 PM 50.5°F10.3°C 45.6°F7.6°C 83% 9.0 mph S14.5 kmh S 19.7 mph31.7 kmh 29.91 in1012.9 mb 0.02 in0.5 mm 0.00 in/hr0.0 mm/hr 0.05 in1.3 mm
02:15 PM 50.7°F10.4°C 45.1°F7.3°C 81% 9.7 mph S15.6 kmh S 21.3 mph34.3 kmh 29.91 in1012.9 mb 0.02 in0.5 mm 0.00 in/hr0.0 mm/hr 0.04 in1.0 mm
02:00 PM 51.1°F10.6°C 45.5°F7.5°C 81% 10.7 mph S17.2 kmh S 25.1 mph40.4 kmh 29.89 in1012.2 mb 0.02 in0.5 mm 0.00 in/hr0.0 mm/hr 0.02 in0.5 mm
01:45 PM 51.1°F10.6°C 46.4°F8.0°C 84% 12.4 mph S20.0 kmh S 24.4 mph39.3 kmh 29.88 in1011.9 mb 0.02 in0.5 mm 0.00 in/hr0.0 mm/hr 0.02 in0.5 mm
01:30 PM 51.8°F11.0°C 47.8°F8.8°C 86% 11.5 mph S18.5 kmh S 25.9 mph41.7 kmh 29.88 in1011.9 mb 0.02 in0.5 mm 0.04 in/hr1.0 mm/hr 0.02 in0.5 mm
01:15 PM 52.0°F11.1°C 48.5°F9.2°C 88% 14.1 mph S22.7 kmh S 28.2 mph45.4 kmh 29.88 in1011.9 mb 0.01 in0.3 mm 0.04 in/hr1.0 mm/hr 0.01 in0.3 mm
01:00 PM 52.2°F11.2°C 49.0°F9.4°C 89% 11.2 mph S18.0 kmh S 22.8 mph36.7 kmh 29.87 in1011.5 mb 0.00 in0.0 mm 0.00 in/hr0.0 mm/hr 0.00 in0.0 mm
12:45 PM 52.3°F11.3°C 50.7°F10.4°C 94% 12.0 mph S19.3 kmh S 25.1 mph40.4 kmh 29.86 in1011.2 mb 0.00 in0.0 mm 0.00 in/hr0.0 mm/hr 0.00 in0.0 mm
12:30 PM 54.1°F12.3°C 50.4°F10.2°C 87% 10.7 mph S17.2 kmh S 22.8 mph36.7 kmh 29.85 in1010.8 mb 0.00 in0.0 mm 0.00 in/hr0.0 mm/hr 0.00 in0.0 mm
12:15 PM 56.5°F13.6°C 52.0°F11.1°C 85% 11.3 mph SSW18.2 kmh SSW 23.5 mph37.8 kmh 29.84 in1010.5 mb 0.00 in0.0 mm 0.00 in/hr0.0 mm/hr 0.00 in0.0 mm
12:00 PM 58.8°F14.9°C 53.3°F11.8°C 82% 12.2 mph S19.6 kmh S 29.8 mph48.0 kmh 29.83 in1010.2 mb 0.00 in0.0 mm 0.00 in/hr0.0 mm/hr 0.00 in0.0 mm
11:45 AM 59.4°F15.2°C 54.2°F12.3°C 83% 10.5 mph S16.9 kmh S 22.8 mph36.7 kmh 29.83 in1010.2 mb 0.00 in0.0 mm 0.00 in/hr0.0 mm/hr 0.00 in0.0 mm
11:30 AM 59.4°F15.2°C 53.9°F12.2°C 82% 9.1 mph S14.6 kmh S 21.3 mph34.3 kmh 29.83 in1010.2 mb 0.00 in0.0 mm 0.00 in/hr0.0 mm/hr 0.00 in0.0 mm
11:15 AM 60.3°F15.7°C 54.1°F12.3°C 80% 10.5 mph SW16.9 kmh SW 22.8 mph36.7 kmh 29.82 in1009.8 mb 0.00 in0.0 mm 0.00 in/hr0.0 mm/hr 0.00 in0.0 mm
11:00 AM 61.2°F16.2°C 54.3°F12.4°C 78% 10.8 mph SSW17.4 kmh SSW 20.6 mph33.2 kmh 29.82 in1009.8 mb 0.00 in0.0 mm 0.00 in/hr0.0 mm/hr 0.00 in0.0 mm
10:45 AM 63.1°F17.3°C 54.4°F12.4°C 73% 9.4 mph SSW15.1 kmh SSW 19.7 mph31.7 kmh 29.81 in1009.5 mb 0.00 in0.0 mm 0.00 in/hr0.0 mm/hr 0.00 in0.0 mm
10:30 AM 63.5°F17.5°C 53.2°F11.8°C 69% 9.4 mph S15.1 kmh S 24.4 mph39.3 kmh 29.80 in1009.1 mb 0.00 in0.0 mm 0.00 in/hr0.0 mm/hr 0.00 in0.0 mm
10:15 AM 63.5°F17.5°C 53.9°F12.2°C 71% 9.5 mph SW15.3 kmh SW 19.7 mph31.7 kmh 29.80 in1009.1 mb 0.00 in0.0 mm 0.00 in/hr0.0 mm/hr 0.00 in0.0 mm
10:00 AM 63.5°F17.5°C 52.0°F11.1°C 66% 7.9 mph W12.7 kmh W 18.3 mph29.5 kmh 29.80 in1009.1 mb 0.00 in0.0 mm 0.00 in/hr0.0 mm/hr 0.00 in0.0 mm
09:45 AM 64.0°F17.8°C 51.2°F10.7°C 63% 8.1 mph WSW13.0 kmh WSW 16.8 mph27.0 kmh 29.80 in1009.1 mb 0.00 in0.0 mm 0.00 in/hr0.0 mm/hr 0.00 in0.0 mm
09:30 AM 64.4°F18.0°C 50.7°F10.4°C 61% 8.3 mph WSW13.4 kmh WSW 15.2 mph24.5 kmh 29.79 in1008.8 mb 0.00 in0.0 mm 0.00 in/hr0.0 mm/hr 0.00 in0.0 mm
09:15 AM 64.8°F18.2°C 51.0°F10.6°C 61% 7.5 mph WSW12.1 kmh WSW 19.0 mph30.6 kmh 29.79 in1008.8 mb 0.00 in0.0 mm 0.00 in/hr0.0 mm/hr 0.00 in0.0 mm
09:00 AM 61.7°F16.5°C 51.8°F11.0°C 70% 7.9 mph WSW12.7 kmh WSW 17.4 mph28.0 kmh 29.79 in1008.8 mb 0.00 in0.0 mm 0.00 in/hr0.0 mm/hr 0.00 in0.0 mm
08:45 AM 61.3°F16.3°C 52.6°F11.4°C 73% 6.9 mph SW11.1 kmh SW 16.8 mph27.0 kmh 29.78 in1008.5 mb 0.00 in0.0 mm 0.00 in/hr0.0 mm/hr 0.00 in0.0 mm
08:30 AM 62.2°F16.8°C 52.3°F11.3°C 70% 7.9 mph SW12.7 kmh SW 16.8 mph27.0 kmh 29.78 in1008.5 mb 0.00 in0.0 mm 0.00 in/hr0.0 mm/hr 0.00 in0.0 mm
08:15 AM 63.0°F17.2°C 53.0°F11.7°C 70% 9.4 mph WSW15.1 kmh WSW 22.1 mph35.6 kmh 29.77 in1008.1 mb 0.00 in0.0 mm 0.00 in/hr0.0 mm/hr 0.00 in0.0 mm
08:00 AM 63.3°F17.4°C 51.0°F10.6°C 64% 9.4 mph WSW15.1 kmh WSW 22.1 mph35.6 kmh 29.77 in1008.1 mb 0.00 in0.0 mm 0.00 in/hr0.0 mm/hr 0.00 in0.0 mm
07:45 AM 62.2°F16.8°C 50.8°F10.4°C 66% 10.2 mph W16.4 kmh W 22.8 mph36.7 kmh 29.77 in1008.1 mb 0.00 in0.0 mm 0.00 in/hr0.0 mm/hr 0.00 in0.0 mm
07:30 AM 61.5°F16.4°C 49.2°F9.6°C 64% 11.8 mph WSW19.0 kmh WSW 28.2 mph45.4 kmh 29.77 in1008.1 mb 0.00 in0.0 mm 0.00 in/hr0.0 mm/hr 0.00 in0.0 mm
07:15 AM 61.9°F16.6°C 50.4°F10.2°C 66% 7.1 mph W11.4 kmh W 19.0 mph30.6 kmh 29.77 in1008.1 mb 0.00 in0.0 mm 0.00 in/hr0.0 mm/hr 0.00 in0.0 mm
07:00 AM 61.3°F16.3°C 49.1°F9.5°C 64% 7.3 mph WSW11.7 kmh WSW 22.1 mph35.6 kmh 29.76 in1007.8 mb 0.00 in0.0 mm 0.00 in/hr0.0 mm/hr 0.00 in0.0 mm
06:45 AM 61.0°F16.1°C 49.6°F9.8°C 66% 7.1 mph SW11.4 kmh SW 16.8 mph27.0 kmh 29.76 in1007.8 mb 0.00 in0.0 mm 0.00 in/hr0.0 mm/hr 0.00 in0.0 mm
06:30 AM 61.0°F16.1°C 50.0°F10.0°C 67% 5.6 mph SW9.0 kmh SW 15.9 mph25.6 kmh 29.75 in1007.5 mb 0.00 in0.0 mm 0.00 in/hr0.0 mm/hr 0.00 in0.0 mm
06:15 AM 60.4°F15.8°C 51.0°F10.6°C 71% 6.5 mph WSW10.5 kmh WSW 14.5 mph23.3 kmh 29.74 in1007.1 mb 0.00 in0.0 mm 0.00 in/hr0.0 mm/hr 0.00 in0.0 mm
06:00 AM 58.8°F14.9°C 50.6°F10.3°C 74% 4.9 mph SW7.9 kmh SW 13.0 mph20.9 kmh 29.74 in1007.1 mb 0.00 in0.0 mm 0.00 in/hr0.0 mm/hr 0.00 in0.0 mm
05:45 AM 58.8°F14.9°C 50.6°F10.3°C 74% 4.3 mph SW6.9 kmh SW 12.1 mph19.5 kmh 29.73 in1006.8 mb 0.00 in0.0 mm 0.00 in/hr0.0 mm/hr 0.00 in0.0 mm
05:30 AM 59.2°F15.1°C 49.8°F9.9°C 71% 5.6 mph W9.0 kmh W 12.1 mph19.5 kmh 29.72 in1006.4 mb 0.00 in0.0 mm 0.00 in/hr0.0 mm/hr 0.00 in0.0 mm
05:15 AM 59.4°F15.2°C 49.6°F9.8°C 70% 4.9 mph WSW7.9 kmh WSW 13.6 mph21.9 kmh 29.70 in1005.8 mb 0.00 in0.0 mm 0.00 in/hr0.0 mm/hr 0.00 in0.0 mm
05:00 AM 59.5°F15.3°C 49.4°F9.7°C 69% 4.4 mph SW7.1 kmh SW 11.4 mph18.3 kmh 29.70 in1005.8 mb 0.00 in0.0 mm 0.00 in/hr0.0 mm/hr 0.00 in0.0 mm
04:45 AM 59.9°F15.5°C 47.3°F8.5°C 63% 4.6 mph WNW7.4 kmh WNW 12.1 mph19.5 kmh 29.69 in1005.4 mb 0.00 in0.0 mm 0.00 in/hr0.0 mm/hr 0.00 in0.0 mm
04:30 AM 59.7°F15.4°C 47.5°F8.6°C 64% 5.0 mph WSW8.0 kmh WSW 15.9 mph25.6 kmh 29.68 in1005.1 mb 0.00 in0.0 mm 0.00 in/hr0.0 mm/hr 0.00 in0.0 mm
04:15 AM 59.4°F15.2°C 46.8°F8.2°C 63% 4.2 mph WSW6.8 kmh WSW 10.7 mph17.2 kmh 29.68 in1005.1 mb 0.00 in0.0 mm 0.00 in/hr0.0 mm/hr 0.00 in0.0 mm
04:00 AM 59.4°F15.2°C 47.6°F8.7°C 65% 5.0 mph WSW8.0 kmh WSW 13.6 mph21.9 kmh 29.68 in1005.1 mb 0.00 in0.0 mm 0.00 in/hr0.0 mm/hr 0.00 in0.0 mm
03:45 AM 59.4°F15.2°C 48.8°F9.3°C 68% 3.4 mph W5.5 kmh W 12.1 mph19.5 kmh 29.68 in1005.1 mb 0.00 in0.0 mm 0.00 in/hr0.0 mm/hr 0.00 in0.0 mm
03:30 AM 59.7°F15.4°C 49.5°F9.7°C 69% 4.0 mph W6.4 kmh W 13.6 mph21.9 kmh 29.68 in1005.1 mb 0.00 in0.0 mm 0.00 in/hr0.0 mm/hr 0.00 in0.0 mm
03:15 AM 59.7°F15.4°C 49.5°F9.7°C 69% 3.9 mph WSW6.3 kmh WSW 11.4 mph18.3 kmh 29.68 in1005.1 mb 0.00 in0.0 mm 0.00 in/hr0.0 mm/hr 0.00 in0.0 mm
03:00 AM 59.7°F15.4°C 50.3°F10.2°C 71% 4.9 mph WSW7.9 kmh WSW 17.4 mph28.0 kmh 29.68 in1005.1 mb 0.00 in0.0 mm 0.00 in/hr0.0 mm/hr 0.00 in0.0 mm
02:45 AM 59.7°F15.4°C 47.1°F8.4°C 63% 4.9 mph SW7.9 kmh SW 14.5 mph23.3 kmh 29.68 in1005.1 mb 0.00 in0.0 mm 0.00 in/hr0.0 mm/hr 0.00 in0.0 mm
02:30 AM 60.1°F15.6°C 46.6°F8.1°C 61% 5.0 mph W8.0 kmh W 11.4 mph18.3 kmh 29.68 in1005.1 mb 0.00 in0.0 mm 0.00 in/hr0.0 mm/hr 0.00 in0.0 mm
02:15 AM 59.9°F15.5°C 49.3°F9.6°C 68% 4.7 mph SW7.6 kmh SW 13.6 mph21.9 kmh 29.69 in1005.4 mb 0.00 in0.0 mm 0.00 in/hr0.0 mm/hr 0.00 in0.0 mm
02:00 AM 60.1°F15.6°C 49.9°F9.9°C 69% 4.6 mph WSW7.4 kmh WSW 15.9 mph25.6 kmh 29.69 in1005.4 mb 0.00 in0.0 mm 0.00 in/hr0.0 mm/hr 0.00 in0.0 mm
01:45 AM 60.3°F15.7°C 48.5°F9.2°C 65% 3.8 mph WSW6.1 kmh WSW 10.7 mph17.2 kmh 29.69 in1005.4 mb 0.00 in0.0 mm 0.00 in/hr0.0 mm/hr 0.00 in0.0 mm
01:30 AM 60.4°F15.8°C 48.2°F9.0°C 64% 4.5 mph W7.2 kmh W 14.5 mph23.3 kmh 29.69 in1005.4 mb 0.00 in0.0 mm 0.00 in/hr0.0 mm/hr 0.00 in0.0 mm
01:15 AM 60.1°F15.6°C 50.7°F10.4°C 71% 4.7 mph WSW7.6 kmh WSW 13.6 mph21.9 kmh 29.70 in1005.8 mb 0.00 in0.0 mm 0.00 in/hr0.0 mm/hr 0.00 in0.0 mm
01:00 AM 60.3°F15.7°C 49.7°F9.8°C 68% 4.7 mph WSW7.6 kmh WSW 12.1 mph19.5 kmh 29.70 in1005.8 mb 0.00 in0.0 mm 0.00 in/hr0.0 mm/hr 0.00 in0.0 mm
12:45 AM 60.4°F15.8°C 49.0°F9.4°C 66% 3.6 mph WSW5.8 kmh WSW 10.7 mph17.2 kmh 29.70 in1005.8 mb 0.00 in0.0 mm 0.00 in/hr0.0 mm/hr 0.00 in0.0 mm
12:30 AM 60.4°F15.8°C 48.6°F9.2°C 65% 4.3 mph WSW6.9 kmh WSW 10.7 mph17.2 kmh 29.71 in1006.1 mb 0.00 in0.0 mm 0.00 in/hr0.0 mm/hr 0.00 in0.0 mm
12:15 AM 60.1°F15.6°C 49.1°F9.5°C 67% 3.2 mph W5.1 kmh W 10.7 mph17.2 kmh 29.71 in1006.1 mb 0.00 in0.0 mm 0.00 in/hr0.0 mm/hr 0.00 in0.0 mm
12:00 AM 59.4°F15.2°C 50.3°F10.2°C 72% 1.4 mph SW2.3 kmh SW 6.0 mph9.7 kmh 29.72 in1006.4 mb 0.00 in0.0 mm 0.00 in/hr0.0 mm/hr 0.00 in0.0 mm